Time;durP1;ratioP1;P1;durP2;ratioP2;P2;SDS_P1;SDS_P2;PMS_P1;PMS_P2;Temp;Humidity;BMP_temperature;BMP_pressure;BME280_temperature;BME280_humidity;BME280_pressure;Samples;Min_cycle;Max_cycle;Signal;HPM_P1;HPM_P2
2021/10/23 00:00:55;;;;;;;10.50;2.53;;;;;;;5.72;81.29;101327.06;5063668;28;20210;-84
2021/10/23 00:03:21;;;;;;;6.20;1.93;;;;;;;5.71;81.41;101320.06;5072314;28;20209;-85
2021/10/23 00:05:49;;;;;;;7.50;2.53;;;;;;;5.70;81.40;101327.13;5066145;28;20209;-85
2021/10/23 00:08:16;;;;;;;9.17;2.40;;;;;;;5.69;81.52;101325.38;5067761;28;20201;-85
2021/10/23 00:10:42;;;;;;;6.27;2.50;;;;;;;5.69;81.66;101333.31;5066292;28;20232;-84
2021/10/23 00:13:09;;;;;;;8.80;2.10;;;;;;;5.69;81.34;101335.09;5065412;28;20205;-85
2021/10/23 00:15:35;;;;;;;10.30;2.53;;;;;;;5.68;81.22;101338.66;5073439;28;20288;-86
2021/10/23 00:18:02;;;;;;;9.87;2.13;;;;;;;5.69;81.33;101346.53;5068451;28;20216;-86
2021/10/23 00:20:28;;;;;;;8.67;2.13;;;;;;;5.67;81.42;101347.47;5068438;28;20295;-83
2021/10/23 00:22:56;;;;;;;6.73;1.80;;;;;;;5.67;81.27;101352.78;5068162;28;20753;-84
2021/10/23 00:25:23;;;;;;;8.50;2.10;;;;;;;5.66;81.29;101348.41;5067773;28;20295;-84
2021/10/23 00:27:50;;;;;;;12.80;2.67;;;;;;;5.65;81.10;101351.94;5064958;28;20619;-85
2021/10/23 00:30:16;;;;;;;8.40;2.57;;;;;;;5.63;81.31;101361.69;5068713;28;20268;-86
2021/10/23 00:32:43;;;;;;;10.23;2.30;;;;;;;5.62;81.41;101362.59;5065768;28;20193;-86
2021/10/23 00:35:10;;;;;;;6.90;2.00;;;;;;;5.61;81.29;101361.75;5063688;28;20619;-86
2021/10/23 00:37:37;;;;;;;8.73;2.77;;;;;;;5.61;81.20;101350.31;5068382;28;20224;-86
2021/10/23 00:40:06;;;;;;;8.43;1.83;;;;;;;5.59;81.41;101353.88;5066133;28;20241;-86
2021/10/23 00:42:33;;;;;;;10.63;2.10;;;;;;;5.56;81.58;101363.66;5068375;28;20220;-85
2021/10/23 00:45:01;;;;;;;10.57;2.30;;;;;;;5.55;81.46;101360.16;5062238;28;20564;-85
2021/10/23 00:47:28;;;;;;;8.93;2.13;;;;;;;5.55;81.48;101357.50;5067014;28;20308;-86
2021/10/23 00:49:54;;;;;;;7.63;1.97;;;;;;;5.55;81.61;101362.78;5068452;28;20288;-86
2021/10/23 00:52:22;;;;;;;8.27;2.20;;;;;;;5.55;81.02;101362.78;5067181;28;20208;-86
2021/10/23 00:54:49;;;;;;;8.13;1.80;;;;;;;5.56;81.44;101368.94;5063235;28;20262;-86
2021/10/23 00:57:17;;;;;;;15.37;2.70;;;;;;;5.55;81.40;101362.78;5060751;28;20221;-86
2021/10/23 00:59:44;;;;;;;9.10;2.50;;;;;;;5.56;81.50;101364.53;5065194;28;20197;-86
2021/10/23 01:02:10;;;;;;;13.53;2.30;;;;;;;5.54;81.95;101363.75;5061959;28;20222;-86
2021/10/23 01:04:37;;;;;;;7.83;2.23;;;;;;;5.53;82.09;101371.72;5062850;28;20204;-85
2021/10/23 01:07:04;;;;;;;7.10;2.57;;;;;;;5.52;81.76;101386.69;5060608;28;20412;-85
2021/10/23 01:09:33;;;;;;;10.03;1.90;;;;;;;5.52;81.94;101380.53;5064591;28;20228;-86
2021/10/23 01:12:00;;;;;;;8.10;1.90;;;;;;;5.53;81.75;101384.91;5065308;28;20924;-85
2021/10/23 01:14:28;;;;;;;5.30;2.00;;;;;;;5.53;81.87;101383.13;5066245;28;20211;-85
2021/10/23 01:16:56;;;;;;;8.23;2.07;;;;;;;5.54;81.74;101381.38;5060165;28;20225;-86
2021/10/23 01:19:23;;;;;;;7.47;1.80;;;;;;;5.55;81.91;101373.34;5057809;28;20638;-85
2021/10/23 01:21:53;;;;;;;7.17;2.20;;;;;;;5.53;81.82;101372.56;5060969;28;20640;-86
2021/10/23 01:24:20;;;;;;;13.87;1.80;;;;;;;5.51;81.80;101386.75;5060076;28;20209;-85
2021/10/23 01:26:48;;;;;;;8.00;1.83;;;;;;;5.51;81.72;101392.88;5069386;28;20292;-86
2021/10/23 01:29:17;;;;;;;12.17;2.67;;;;;;;5.51;81.65;101384.97;5061431;28;20204;-86
2021/10/23 01:31:45;;;;;;;10.43;3.33;;;;;;;5.53;81.82;101377.84;5061716;28;20208;-86
2021/10/23 01:34:15;;;;;;;8.50;1.83;;;;;;;5.52;81.90;101381.41;5067270;28;20288;-86
2021/10/23 01:36:44;;;;;;;8.83;2.20;;;;;;;5.52;81.74;101380.53;5068817;28;20624;-85
2021/10/23 01:39:12;;;;;;;6.73;1.77;;;;;;;5.49;81.90;101378.00;5064063;28;20631;-87
2021/10/23 01:41:40;;;;;;;12.57;2.20;;;;;;;5.50;81.71;101380.59;5063976;28;20239;-86
2021/10/23 01:44:07;;;;;;;5.90;1.87;;;;;;;5.48;81.87;101379.75;5058682;28;20212;-87
2021/10/23 01:46:34;;;;;;;9.53;2.03;;;;;;;5.48;81.62;101392.09;5063732;28;20225;-86
2021/10/23 01:49:01;;;;;;;9.70;2.03;;;;;;;5.48;81.31;101394.75;5059669;28;20202;-86
2021/10/23 01:51:28;;;;;;;6.60;2.07;;;;;;;5.47;81.74;101390.38;5060011;28;20203;-85
2021/10/23 01:53:55;;;;;;;8.60;2.13;;;;;;;5.46;81.60;101401.84;5056541;28;20307;-86
2021/10/23 01:56:23;;;;;;;5.70;1.67;;;;;;;5.47;81.78;101403.59;5067884;28;20216;-86
2021/10/23 01:58:49;;;;;;;11.17;2.23;;;;;;;5.47;81.56;101412.38;5063966;28;20213;-86
2021/10/23 02:01:16;;;;;;;7.73;2.03;;;;;;;5.46;81.75;101423.84;5073787;28;20207;-86
2021/10/23 02:03:42;;;;;;;8.20;2.13;;;;;;;5.47;81.71;101430.88;5060953;28;20300;-85
2021/10/23 02:06:10;;;;;;;8.07;2.10;;;;;;;5.47;81.72;101422.94;5074378;28;20232;-86
2021/10/23 02:08:36;;;;;;;13.97;2.77;;;;;;;5.47;81.62;101430.00;5060273;28;20255;-85
2021/10/23 02:11:03;;;;;;;7.57;2.23;;;;;;;5.47;81.77;101449.38;5074564;28;20213;-85
2021/10/23 02:13:31;;;;;;;10.33;2.40;;;;;;;5.44;81.66;101446.81;5078543;28;20204;-86
2021/10/23 02:15:58;;;;;;;9.30;1.57;;;;;;;5.48;81.57;101453.75;5095140;22;20232;-70
2021/10/23 02:18:24;;;;;;;11.03;2.37;;;;;;;5.47;81.71;101448.50;5069237;28;20205;-72
2021/10/23 02:20:51;;;;;;;4.83;1.47;;;;;;;5.48;81.53;101447.59;5070735;28;20204;-72
2021/10/23 02:23:17;;;;;;;5.93;1.70;;;;;;;5.47;81.60;101448.50;5073981;28;20251;-69
2021/10/23 02:25:44;;;;;;;10.20;1.90;;;;;;;5.47;81.73;101465.22;5073932;28;20224;-71
2021/10/23 02:28:10;;;;;;;7.00;1.70;;;;;;;5.46;81.55;101457.34;5074310;28;20205;-72
2021/10/23 02:30:38;;;;;;;9.03;1.93;;;;;;;5.46;81.31;101463.47;5075299;28;20215;-70
2021/10/23 02:33:05;;;;;;;10.00;2.37;;;;;;;5.47;81.20;101464.34;5074047;28;20205;-70
2021/10/23 02:35:32;;;;;;;8.50;1.90;;;;;;;5.46;81.38;101457.34;5073990;28;20236;-71
2021/10/23 02:37:58;;;;;;;9.33;2.10;;;;;;;5.45;81.13;101458.25;5059345;28;20212;-71
2021/10/23 02:40:25;;;;;;;8.67;1.73;;;;;;;5.43;81.00;101468.84;5074562;28;20211;-71
2021/10/23 02:42:52;;;;;;;4.20;1.50;;;;;;;5.42;81.37;101475.03;5059059;28;20243;-71
2021/10/23 02:45:18;;;;;;;6.33;1.60;;;;;;;5.42;81.09;101482.09;5076580;28;20598;-71
2021/10/23 02:47:46;;;;;;;7.93;2.20;;;;;;;5.41;80.96;101486.50;5075757;28;20209;-71
2021/10/23 02:50:13;;;;;;;13.30;2.20;;;;;;;5.38;81.05;101494.53;5065610;28;20296;-71
2021/10/23 02:52:39;;;;;;;6.50;1.77;;;;;;;5.37;81.09;101498.09;5074109;28;20228;-71
2021/10/23 02:55:07;;;;;;;5.43;1.93;;;;;;;5.37;81.39;101491.97;5073462;28;20209;-71
2021/10/23 02:57:33;;;;;;;7.20;2.00;;;;;;;5.36;81.34;101499.00;5073866;28;20213;-71
2021/10/23 03:00:00;;;;;;;6.00;1.47;;;;;;;5.38;80.94;101501.59;5073280;28;20221;-71
2021/10/23 03:02:26;;;;;;;5.90;1.63;;;;;;;5.36;81.14;101503.44;5073798;28;20303;-71
2021/10/23 03:04:54;;;;;;;5.50;1.80;;;;;;;5.35;81.12;101509.63;5073032;28;20669;-70
2021/10/23 03:07:21;;;;;;;11.13;1.90;;;;;;;5.33;81.16;101501.72;5073603;28;20233;-71
2021/10/23 03:09:47;;;;;;;4.40;1.53;;;;;;;5.31;81.32;101506.19;5073257;28;20235;-72
2021/10/23 03:12:14;;;;;;;5.93;1.60;;;;;;;5.32;81.36;101514.97;5059255;28;20208;-71
2021/10/23 03:14:40;;;;;;;8.37;1.87;;;;;;;5.32;81.49;101517.63;5062943;28;20210;-71
2021/10/23 03:17:07;;;;;;;6.27;1.80;;;;;;;5.31;81.41;101505.31;5069558;28;20228;-71
2021/10/23 03:19:33;;;;;;;7.27;2.13;;;;;;;5.30;81.66;101514.16;5064799;28;20220;-72
2021/10/23 03:22:01;;;;;;;4.87;1.57;;;;;;;5.30;81.39;101514.16;5067273;28;20215;-71
2021/10/23 03:24:28;;;;;;;7.10;1.40;;;;;;;5.28;81.58;101516.84;5061686;28;20215;-71
2021/10/23 03:26:54;;;;;;;4.70;1.63;;;;;;;5.29;81.71;101510.66;5072397;28;20236;-69
2021/10/23 03:29:22;;;;;;;6.47;1.97;;;;;;;5.28;81.32;101518.63;5073132;28;20643;-71
2021/10/23 03:31:48;;;;;;;9.40;2.00;;;;;;;5.30;81.56;101524.72;5072918;28;20213;-71
2021/10/23 03:34:15;;;;;;;7.50;1.70;;;;;;;5.28;81.49;101521.25;5070214;28;20216;-71
2021/10/23 03:36:41;;;;;;;8.10;2.20;;;;;;;5.29;81.58;101526.50;5064990;28;20237;-71
2021/10/23 03:39:09;;;;;;;6.10;1.40;;;;;;;5.30;81.87;101533.50;5067015;28;20215;-71
2021/10/23 03:41:37;;;;;;;7.57;1.87;;;;;;;5.30;81.90;101530.00;5066739;28;20216;-71
2021/10/23 03:44:04;;;;;;;16.43;3.27;;;;;;;5.29;81.88;101534.41;5065442;28;20232;-71
2021/10/23 03:46:30;;;;;;;6.30;1.40;;;;;;;5.30;81.88;101530.88;5055139;28;20521;-71
2021/10/23 03:48:57;;;;;;;6.27;1.57;;;;;;;5.31;81.78;101532.59;5062702;28;20205;-71
2021/10/23 03:51:23;;;;;;;6.30;1.53;;;;;;;5.32;81.54;101520.25;5067529;28;20213;-71
2021/10/23 03:53:50;;;;;;;9.00;1.60;;;;;;;5.28;81.74;101516.84;5071282;28;20215;-71
2021/10/23 03:56:18;;;;;;;6.13;1.60;;;;;;;5.29;81.88;101520.34;5058873;28;20572;-72
2021/10/23 03:58:44;;;;;;;6.77;1.47;;;;;;;5.30;82.11;101530.88;5071932;28;20209;-72
2021/10/23 04:01:11;;;;;;;9.77;1.50;;;;;;;5.28;82.06;101535.31;5067723;28;20220;-71
2021/10/23 04:03:37;;;;;;;5.37;1.80;;;;;;;5.28;81.91;101527.41;5071846;28;20221;-71
2021/10/23 04:06:04;;;;;;;7.37;2.93;;;;;;;5.28;82.09;101530.03;5066344;28;20221;-71
2021/10/23 04:08:31;;;;;;;7.43;1.83;;;;;;;5.28;81.86;101518.63;5071650;28;20211;-73
2021/10/23 04:10:58;;;;;;;8.33;1.97;;;;;;;5.27;82.30;101527.44;5072208;28;20209;-71
2021/10/23 04:13:26;;;;;;;9.10;1.57;;;;;;;5.28;82.15;101519.47;5066735;28;20203;-71
2021/10/23 04:15:52;;;;;;;3.97;2.67;;;;;;;5.29;82.22;101517.69;5063637;28;20232;-71
2021/10/23 04:18:19;;;;;;;12.57;2.13;;;;;;;5.29;82.18;101534.41;5065672;28;20312;-72
2021/10/23 04:20:45;;;;;;;8.43;1.70;;;;;;;5.31;82.00;101524.69;5066085;28;20201;-71
2021/10/23 04:23:12;;;;;;;9.73;2.30;;;;;;;5.31;82.23;101524.69;5061997;28;20228;-70
2021/10/23 04:25:38;;;;;;;9.23;2.13;;;;;;;5.31;82.17;101527.31;5071692;28;20238;-71
2021/10/23 04:28:05;;;;;;;10.00;2.23;;;;;;;5.32;82.19;101525.56;5069213;28;20201;-70
2021/10/23 04:30:34;;;;;;;7.80;2.20;;;;;;;5.31;82.06;101524.69;5070084;28;20227;-71
2021/10/23 04:33:01;;;;;;;9.60;2.10;;;;;;;5.32;81.92;101530.84;5066533;28;20212;-71
2021/10/23 04:35:27;;;;;;;4.53;1.70;;;;;;;5.31;82.33;101535.25;5059796;28;20233;-71
2021/10/23 04:37:54;;;;;;;10.10;2.40;;;;;;;5.31;82.26;101540.53;5069291;28;20204;-71
2021/10/23 04:40:20;;;;;;;5.20;1.70;;;;;;;5.32;82.45;101539.63;5061789;28;20228;-71
2021/10/23 04:42:47;;;;;;;5.53;1.80;;;;;;;5.32;82.24;101542.25;5053884;28;20229;-70
2021/10/23 04:45:13;;;;;;;5.80;2.03;;;;;;;5.33;82.31;101546.63;5070806;28;20684;-71
2021/10/23 04:47:41;;;;;;;7.20;1.97;;;;;;;5.32;82.20;101546.69;5070936;28;20211;-70
2021/10/23 04:50:08;;;;;;;7.50;2.60;;;;;;;5.32;82.06;101544.91;5061743;28;20651;-70
2021/10/23 04:52:35;;;;;;;4.80;1.53;;;;;;;5.32;82.26;101555.47;5063183;28;20205;-71
2021/10/23 04:55:01;;;;;;;10.73;2.37;;;;;;;5.32;82.25;101544.91;5068315;28;20220;-71
2021/10/23 04:57:28;;;;;;;8.40;2.50;;;;;;;5.33;81.82;101540.50;5060394;28;20591;-71
2021/10/23 04:59:54;;;;;;;6.57;1.87;;;;;;;5.33;82.25;101546.63;5071290;28;20208;-71
2021/10/23 05:02:21;;;;;;;9.60;1.93;;;;;;;5.32;82.17;101552.84;5060895;28;20689;-72
2021/10/23 05:04:48;;;;;;;9.40;2.20;;;;;;;5.31;81.87;101547.59;5070829;28;20208;-71
2021/10/23 05:07:15;;;;;;;7.20;1.90;;;;;;;5.29;82.28;101555.53;5070856;28;20228;-72
2021/10/23 05:09:41;;;;;;;12.60;3.00;;;;;;;5.29;82.27;101549.41;5071189;28;20208;-71
2021/10/23 05:12:08;;;;;;;10.00;3.13;;;;;;;5.28;82.41;101551.19;5070693;28;20212;-72
2021/10/23 05:14:34;;;;;;;11.63;2.83;;;;;;;5.28;82.05;101555.59;5070940;28;20197;-71
2021/10/23 05:17:01;;;;;;;8.03;2.17;;;;;;;5.26;82.22;101562.69;5056209;28;20240;-71
2021/10/23 05:19:27;;;;;;;6.83;2.20;;;;;;;5.24;82.20;101557.44;5064499;28;20228;-72
2021/10/23 05:21:56;;;;;;;7.30;1.83;;;;;;;5.24;82.17;101566.22;5053610;28;20206;-71
2021/10/23 05:24:22;;;;;;;8.03;2.53;;;;;;;5.25;82.39;101567.09;5069449;28;20314;-72
2021/10/23 05:26:50;;;;;;;6.70;2.20;;;;;;;5.23;82.10;101571.56;5070606;28;20259;-71
2021/10/23 05:29:16;;;;;;;5.93;2.33;;;;;;;5.22;82.12;101561.88;5068818;28;20270;-71
2021/10/23 05:31:43;;;;;;;7.93;2.17;;;;;;;5.21;82.38;101553.09;5071028;28;20215;-72
2021/10/23 05:34:09;;;;;;;6.97;3.23;;;;;;;5.21;82.80;101557.50;5069904;28;20207;-71
2021/10/23 05:36:36;;;;;;;6.10;2.03;;;;;;;5.20;82.73;101563.69;5058089;28;20233;-70
2021/10/23 05:39:04;;;;;;;11.87;2.70;;;;;;;5.21;82.82;101560.16;5065428;28;20210;-72
2021/10/23 05:41:30;;;;;;;6.63;1.97;;;;;;;5.24;82.77;101578.56;5070643;28;20212;-72
2021/10/23 05:43:57;;;;;;;7.77;2.10;;;;;;;5.24;82.73;101573.28;5070852;28;20231;-71
2021/10/23 05:46:23;;;;;;;6.70;1.87;;;;;;;5.26;82.84;101582.03;5056354;28;20601;-72
2021/10/23 05:48:50;;;;;;;8.07;2.10;;;;;;;5.28;82.87;101588.16;5069950;28;20204;-70
2021/10/23 05:51:16;;;;;;;8.20;1.87;;;;;;;5.28;82.75;101587.28;5074074;28;20211;-71
2021/10/23 05:53:43;;;;;;;6.33;1.63;;;;;;;5.27;83.03;101591.69;5067409;28;20197;-72
2021/10/23 05:56:11;;;;;;;7.63;1.90;;;;;;;5.30;83.00;101599.53;5070212;28;20229;-72
2021/10/23 05:58:37;;;;;;;8.43;2.37;;;;;;;5.32;82.91;101594.22;5070361;28;20396;-72
2021/10/23 06:01:06;;;;;;;10.47;1.77;;;;;;;5.32;83.05;101592.44;5068334;28;20212;-72
2021/10/23 06:03:34;;;;;;;8.43;2.07;;;;;;;5.33;82.78;101596.81;5069743;28;20731;-71
2021/10/23 06:06:01;;;;;;;7.73;2.20;;;;;;;5.34;83.35;101598.56;5062701;28;20591;-70
2021/10/23 06:08:28;;;;;;;8.53;2.07;;;;;;;5.34;83.26;101608.25;5064439;28;20299;-70
2021/10/23 06:10:54;;;;;;;6.03;1.83;;;;;;;5.36;82.89;101615.25;5056702;28;20209;-72
2021/10/23 06:13:23;;;;;;;9.30;2.07;;;;;;;5.35;83.25;101616.16;5058137;28;20209;-70
2021/10/23 06:15:50;;;;;;;8.17;2.67;;;;;;;5.36;83.28;101620.53;5068735;28;20321;-72
2021/10/23 06:18:17;;;;;;;5.03;2.00;;;;;;;5.37;83.32;101622.25;5059499;28;20205;-73
2021/10/23 06:20:44;;;;;;;6.77;1.87;;;;;;;5.38;83.08;101628.38;5057825;28;20202;-72
2021/10/23 06:23:10;;;;;;;8.80;2.57;;;;;;;5.39;83.13;101628.34;5062530;28;20220;-72
2021/10/23 06:25:37;;;;;;;5.70;2.17;;;;;;;5.41;83.07;101630.94;5069844;28;20704;-72
2021/10/23 06:28:04;;;;;;;8.17;2.10;;;;;;;5.43;83.16;101634.41;5070048;28;20298;-72
2021/10/23 06:30:32;;;;;;;6.47;2.33;;;;;;;5.45;83.16;101646.69;5067129;28;20206;-71
2021/10/23 06:32:59;;;;;;;9.07;2.20;;;;;;;5.47;83.23;101649.28;5067997;28;20205;-72
2021/10/23 06:35:26;;;;;;;8.50;2.30;;;;;;;5.49;83.27;101658.03;5058332;28;20229;-71
2021/10/23 06:37:53;;;;;;;9.80;2.43;;;;;;;5.51;83.27;101658.88;5061892;28;20206;-72
2021/10/23 06:40:21;;;;;;;7.67;2.50;;;;;;;5.53;83.32;101663.22;5065033;28;20209;-72
2021/10/23 06:42:47;;;;;;;4.53;2.00;;;;;;;5.55;83.37;101664.00;5065543;28;20206;-72
2021/10/23 06:45:17;;;;;;;5.97;1.70;;;;;;;5.59;83.44;101670.09;5061330;28;20205;-72
2021/10/23 06:47:45;;;;;;;7.60;3.07;;;;;;;5.61;83.17;101668.28;5068418;28;20235;-71
2021/10/23 06:50:13;;;;;;;11.97;2.57;;;;;;;5.63;83.04;101669.09;5061096;28;20201;-72
2021/10/23 06:52:39;;;;;;;6.80;1.90;;;;;;;5.65;83.20;101679.63;5062667;28;20688;-72
2021/10/23 06:55:06;;;;;;;8.97;2.13;;;;;;;5.67;83.18;101672.53;5058455;28;20597;-71
2021/10/23 06:57:33;;;;;;;6.80;2.07;;;;;;;5.70;83.15;101689.19;5063624;28;20662;-72
2021/10/23 07:00:00;;;;;;;7.47;2.40;;;;;;;5.73;83.21;101682.97;5060611;28;20211;-72
2021/10/23 07:02:26;;;;;;;7.67;2.40;;;;;;;5.75;83.38;101681.97;5064247;28;20201;-73
2021/10/23 07:04:54;;;;;;;7.63;1.97;;;;;;;5.83;83.39;101689.72;5058674;28;20232;-72
2021/10/23 07:07:21;;;;;;;8.53;2.77;;;;;;;5.85;83.37;101686.13;5060814;28;20626;-72
2021/10/23 07:09:48;;;;;;;9.37;2.77;;;;;;;5.91;83.01;101701.00;5067903;28;20212;-72
2021/10/23 07:12:14;;;;;;;8.33;2.00;;;;;;;5.97;83.14;101702.59;5063628;28;20209;-72
2021/10/23 07:14:41;;;;;;;6.27;2.30;;;;;;;6.02;83.44;101712.13;5062646;28;20193;-72
2021/10/23 07:17:07;;;;;;;5.50;2.00;;;;;;;6.06;83.19;101723.50;5063129;28;20716;-72
2021/10/23 07:19:34;;;;;;;8.17;2.60;;;;;;;6.11;83.70;101719.81;5059473;28;20201;-72
2021/10/23 07:22:02;;;;;;;9.73;2.47;;;;;;;6.16;83.41;101730.25;5064131;28;20541;-73
2021/10/23 07:24:28;;;;;;;9.70;2.13;;;;;;;6.21;82.78;101734.53;5065361;28;20227;-72
2021/10/23 07:26:55;;;;;;;9.63;2.40;;;;;;;6.24;82.93;101737.09;5063564;28;20225;-72
2021/10/23 07:29:21;;;;;;;5.03;1.97;;;;;;;6.31;83.17;101744.84;5062394;28;20209;-72
2021/10/23 07:31:48;;;;;;;8.60;2.70;;;;;;;6.34;83.03;101737.69;5064115;28;20220;-71
2021/10/23 07:34:15;;;;;;;6.57;1.97;;;;;;;6.37;82.66;101740.25;5065110;28;20204;-73
2021/10/23 07:36:41;;;;;;;7.93;2.00;;;;;;;6.39;82.64;101743.72;5064648;28;20216;-72
2021/10/23 07:39:09;;;;;;;7.37;1.97;;;;;;;6.43;83.03;101748.03;5069507;28;20562;-70
2021/10/23 07:41:38;;;;;;;8.90;2.90;;;;;;;6.48;82.95;101755.81;5063622;28;20202;-71
2021/10/23 07:44:05;;;;;;;8.40;2.23;;;;;;;6.53;82.81;101751.25;5062463;28;20649;-72
2021/10/23 07:46:31;;;;;;;7.87;2.33;;;;;;;6.60;82.69;101760.75;5068016;28;20236;-70
2021/10/23 07:48:58;;;;;;;6.20;2.07;;;;;;;6.67;82.89;101774.66;5066227;28;20212;-71
2021/10/23 07:51:24;;;;;;;5.90;2.30;;;;;;;6.75;83.20;101776.19;5061283;28;20201;-72
2021/10/23 07:53:51;;;;;;;9.53;2.33;;;;;;;6.86;82.99;101774.06;5061831;28;20212;-72
2021/10/23 07:56:19;;;;;;;6.17;2.13;;;;;;;6.94;82.37;101782.66;5069662;28;20282;-71
2021/10/23 07:58:46;;;;;;;21.27;6.50;;;;;;;7.00;82.73;101778.06;5069513;28;20216;-73
2021/10/23 08:01:13;;;;;;;10.27;3.13;;;;;;;7.06;82.71;101778.78;5066960;28;20209;-72
2021/10/23 08:03:39;;;;;;;7.33;2.13;;;;;;;7.10;82.29;101779.53;5070283;28;20225;-70
2021/10/23 08:06:06;;;;;;;10.43;2.73;;;;;;;7.12;81.74;101789.19;5068722;28;20435;-72
2021/10/23 08:08:32;;;;;;;8.83;2.90;;;;;;;7.19;81.46;101797.78;5067637;28;20197;-71
2021/10/23 08:11:01;;;;;;;12.47;2.83;;;;;;;7.26;81.89;101802.00;5070306;28;20211;-71
2021/10/23 08:13:29;;;;;;;7.77;2.60;;;;;;;7.35;81.22;101812.28;5064630;28;20562;-73
2021/10/23 08:15:56;;;;;;;5.47;2.10;;;;;;;7.43;81.22;101820.00;5065192;28;20599;-75
2021/10/23 08:18:23;;;;;;;8.50;2.53;;;;;;;7.49;81.49;101820.69;5067428;28;20213;-74
2021/10/23 08:20:50;;;;;;;7.27;2.30;;;;;;;7.58;80.84;101819.53;5071744;28;20653;-74
2021/10/23 08:23:17;;;;;;;9.80;2.57;;;;;;;7.68;80.72;101825.41;5071852;28;20654;-73
2021/10/23 08:25:44;;;;;;;7.03;2.33;;;;;;;7.76;80.83;101828.66;5061182;28;20234;-75
2021/10/23 08:28:11;;;;;;;8.93;2.57;;;;;;;7.81;80.48;101822.28;5071920;28;20208;-74
2021/10/23 08:30:39;;;;;;;10.40;3.23;;;;;;;7.89;80.49;101833.50;5081926;22;20233;-73
2021/10/23 08:33:05;;;;;;;9.77;2.77;;;;;;;7.97;80.21;101836.78;5070895;28;20666;-77
2021/10/23 08:35:32;;;;;;;8.50;2.73;;;;;;;8.08;79.55;101840.84;5064341;28;20228;-74
2021/10/23 08:37:59;;;;;;;7.80;2.17;;;;;;;8.17;79.75;101833.44;5058466;28;20578;-78
2021/10/23 08:40:26;;;;;;;6.60;2.30;;;;;;;8.25;78.61;101842.00;5044815;28;20223;-76
2021/10/23 08:42:53;;;;;;;9.00;2.37;;;;;;;8.33;78.63;101847.94;5044857;28;20220;-77
2021/10/23 08:45:21;;;;;;;8.37;2.00;;;;;;;8.43;78.29;101850.25;5043455;28;20616;-76
2021/10/23 08:47:49;;;;;;;6.57;1.97;;;;;;;8.51;78.25;101853.53;5043717;28;20210;-77
2021/10/23 08:50:19;;;;;;;13.83;2.43;;;;;;;8.58;78.06;101863.03;5039819;28;20721;-78
2021/10/23 08:52:46;;;;;;;8.07;2.33;;;;;;;8.65;77.19;101864.50;5041285;28;20504;-78
2021/10/23 08:55:13;;;;;;;3.87;1.57;;;;;;;8.72;76.60;101863.38;5035600;28;20222;-76
2021/10/23 08:57:40;;;;;;;6.90;1.63;;;;;;;8.82;76.25;101861.25;5043150;28;20208;-79
2021/10/23 09:00:08;;;;;;;5.90;1.50;;;;;;;8.92;76.38;101873.28;5038212;28;20217;-79
2021/10/23 09:02:34;;;;;;;5.90;1.67;;;;;;;9.00;75.76;101860.56;5039540;28;20208;-77
2021/10/23 09:05:03;;;;;;;5.47;1.50;;;;;;;9.08;75.35;101869.13;5039213;28;20236;-78
2021/10/23 09:07:31;;;;;;;6.07;1.80;;;;;;;9.10;75.23;101867.28;5038417;28;20212;-78
2021/10/23 09:10:00;;;;;;;7.37;2.33;;;;;;;9.16;74.27;101866.16;5034901;28;20240;-77
2021/10/23 09:12:29;;;;;;;9.80;2.17;;;;;;;9.23;74.19;101879.16;5036862;28;20202;-79
2021/10/23 09:15:01;;;;;;;7.30;1.60;;;;;;;9.30;74.04;101877.16;5036020;28;20206;-78
2021/10/23 09:17:28;;;;;;;7.73;1.70;;;;;;;9.35;73.65;101876.03;5036939;28;20628;-78
2021/10/23 09:19:56;;;;;;;5.60;1.97;;;;;;;9.39;73.71;101880.31;5037653;28;20288;-78
2021/10/23 09:22:30;;;;;;;6.43;1.83;;;;;;;9.45;73.30;101881.00;5040415;28;20202;-78
2021/10/23 09:25:16;;;;;;;6.97;1.90;;;;;;;9.49;73.25;101890.59;5040862;28;20225;-76
2021/10/23 09:27:48;;;;;;;6.07;1.90;;;;;;;9.56;73.19;101881.44;5032834;28;20255;-76
2021/10/23 09:30:16;;;;;;;10.53;2.97;;;;;;;9.62;73.47;101884.75;5038468;28;20241;-77
2021/10/23 09:32:49;;;;;;;4.77;1.70;;;;;;;9.70;73.04;101887.06;5037807;28;20206;-78
2021/10/23 09:35:17;;;;;;;5.73;2.50;;;;;;;9.78;73.07;101892.09;5038722;28;20206;-81
2021/10/23 09:37:46;;;;;;;9.23;2.53;;;;;;;9.84;73.05;101897.19;5039042;28;20206;-78
2021/10/23 09:40:19;;;;;;;8.13;2.63;;;;;;;9.91;72.52;101893.31;5038187;28;20222;-77
2021/10/23 09:42:46;;;;;;;9.37;2.33;;;;;;;9.94;72.11;101903.84;5038449;28;20213;-78
2021/10/23 09:45:13;;;;;;;7.67;2.20;;;;;;;9.96;71.92;101902.00;5042757;28;20239;-77
2021/10/23 09:47:41;;;;;;;6.67;2.17;;;;;;;9.98;71.97;101911.66;5039813;28;20200;-78
2021/10/23 09:50:14;;;;;;;5.53;1.77;;;;;;;9.98;71.83;101905.47;5043313;28;20763;-79
2021/10/23 09:53:02;;;;;;;5.90;1.80;;;;;;;9.95;71.63;101906.44;5040937;28;20209;-78
2021/10/23 09:55:31;;;;;;;9.47;2.30;;;;;;;9.98;71.43;101914.31;5037945;28;20205;-78
2021/10/23 09:58:17;;;;;;;5.70;2.10;;;;;;;10.01;71.71;101910.66;5042661;28;20205;-78
2021/10/23 10:00:46;;;;;;;7.30;1.90;;;;;;;10.01;71.16;101918.66;5043828;28;20726;-79
2021/10/23 10:03:15;;;;;;;7.03;2.17;;;;;;;9.97;70.90;101920.56;5038691;28;20297;-78
2021/10/23 10:05:42;;;;;;;7.17;1.90;;;;;;;9.96;70.82;101926.81;5038458;28;20218;-80
2021/10/23 10:08:12;;;;;;;7.67;2.70;;;;;;;10.00;70.79;101919.59;5030345;28;20213;-79
2021/10/23 10:10:40;;;;;;;9.20;2.23;;;;;;;10.03;70.96;101916.81;5029992;28;20228;-79
2021/10/23 10:13:09;;;;;;;7.00;2.13;;;;;;;10.07;70.97;101910.41;5030433;28;20206;-80
2021/10/23 10:15:36;;;;;;;6.23;2.20;;;;;;;10.09;70.85;101908.53;5034842;28;20683;-78
2021/10/23 10:18:05;;;;;;;6.13;2.40;;;;;;;10.16;71.11;101914.50;5040865;28;20550;-78
2021/10/23 10:20:34;;;;;;;7.53;3.03;;;;;;;10.20;70.88;101922.31;5031478;28;20221;-79
2021/10/23 10:23:01;;;;;;;8.53;2.80;;;;;;;10.28;71.37;101917.53;5029769;28;20210;-79
2021/10/23 10:25:29;;;;;;;6.00;1.53;;;;;;;10.35;71.18;101916.34;5035448;28;20272;-79
2021/10/23 10:27:56;;;;;;;5.77;1.70;;;;;;;10.43;70.68;101922.19;5034798;28;20220;-78
2021/10/23 10:30:25;;;;;;;8.87;2.57;;;;;;;10.48;70.59;101918.47;5037955;28;20225;-79
2021/10/23 10:32:52;;;;;;;6.17;1.90;;;;;;;10.53;70.57;101919.16;5043921;28;20208;-77
2021/10/23 10:35:53;;;;;;;7.30;1.80;;;;;;;10.57;70.24;101918.09;5037810;28;20204;-76
2021/10/23 10:44:13;;;;;;;5.97;1.67;;;;;;;10.65;69.83;101921.28;5035570;28;21171;-73
2021/10/23 10:47:08;;;;;;;3.87;1.90;;;;;;;10.71;69.62;101923.69;5045353;28;20206;-76
2021/10/23 10:49:53;;;;;;;6.03;1.23;;;;;;;10.76;69.21;101919.88;5038943;28;20228;-74
2021/10/23 10:52:52;;;;;;;3.80;1.50;;;;;;;10.81;69.29;101919.69;5035991;28;20206;-77
2021/10/23 10:55:20;;;;;;;12.63;2.53;;;;;;;10.82;68.65;101920.53;5042631;28;20201;-77
2021/10/23 10:57:59;;;;;;;8.97;1.87;;;;;;;10.83;68.47;101916.94;5045389;28;20669;-75
2021/10/23 11:01:19;;;;;;;4.13;1.80;;;;;;;10.86;68.30;101922.16;5043051;28;20244;-76
2021/10/23 11:04:05;;;;;;;4.50;1.23;;;;;;;10.91;67.95;101923.69;5037608;28;20258;-76
2021/10/23 11:06:56;;;;;;;6.27;1.90;;;;;;;10.97;67.89;101925.19;5046982;28;20269;-77
2021/10/23 11:09:39;;;;;;;11.23;1.93;;;;;;;11.03;67.65;101930.25;5041298;28;20236;-77
2021/10/23 11:12:13;;;;;;;6.97;1.27;;;;;;;11.06;67.38;101924.78;5041517;28;20203;-74
2021/10/23 11:14:41;;;;;;;4.90;1.43;;;;;;;11.08;67.05;101931.78;5038358;28;20198;-76
2021/10/23 11:17:16;;;;;;;7.87;1.50;;;;;;;11.12;67.03;101925.38;5045882;28;20207;-76
2021/10/23 11:19:44;;;;;;;5.17;1.20;;;;;;;11.18;66.63;101931.38;5045834;28;20313;-76
2021/10/23 11:22:13;;;;;;;4.53;1.10;;;;;;;11.24;66.73;101923.97;5049036;28;20210;-74
2021/10/23 11:24:41;;;;;;;4.70;1.30;;;;;;;11.30;66.24;101920.13;5047637;28;20233;-78
2021/10/23 11:27:09;;;;;;;3.63;1.27;;;;;;;11.31;66.10;101920.06;5048997;28;20209;-78
2021/10/23 11:29:37;;;;;;;5.03;1.80;;;;;;;11.34;65.64;101924.38;5048883;28;20238;-75
2021/10/23 11:32:05;;;;;;;8.30;1.73;;;;;;;11.36;65.17;101925.19;5038877;28;20210;-76
2021/10/23 11:34:33;;;;;;;5.37;1.30;;;;;;;11.39;65.21;101922.38;5046060;28;20212;-75
2021/10/23 11:37:00;;;;;;;4.93;1.30;;;;;;;11.46;65.16;101938.00;5045499;28;20221;-75
2021/10/23 11:39:27;;;;;;;5.30;1.53;;;;;;;11.48;64.51;101928.13;5040654;28;20268;-80
2021/10/23 11:42:13;;;;;;;4.87;1.50;;;;;;;11.49;64.40;101931.66;5043376;28;20215;-77